createdAt,value
2023-03-13T00:01:08.510Z,8.70
2023-03-13T00:03:08.509Z,8.60
2023-03-13T00:05:08.655Z,8.50
2023-03-13T00:07:08.510Z,8.50
2023-03-13T00:09:08.612Z,8.40
2023-03-13T00:11:08.613Z,8.40
2023-03-13T00:13:08.514Z,8.00
2023-03-13T00:15:08.517Z,8.00
2023-03-13T00:17:08.578Z,8.00
2023-03-13T00:19:08.558Z,7.80
2023-03-13T00:21:08.518Z,7.60
2023-03-13T00:23:08.548Z,7.60
2023-03-13T00:25:08.530Z,7.60
2023-03-13T00:27:08.557Z,7.60
2023-03-13T00:29:08.535Z,7.50
2023-03-13T00:31:08.706Z,7.30
2023-03-13T00:33:08.533Z,7.20
2023-03-13T00:35:08.820Z,7.20
2023-03-13T00:37:08.531Z,7.20
2023-03-13T00:39:08.616Z,7.10
2023-03-13T00:41:08.639Z,7.00
2023-03-13T00:43:08.621Z,7.00
2023-03-13T00:45:08.546Z,7.00
2023-03-13T00:47:08.532Z,6.90
2023-03-13T00:49:08.785Z,6.80
2023-03-13T00:51:08.587Z,6.80
2023-03-13T00:53:08.525Z,6.80
2023-03-13T00:55:08.524Z,6.80
2023-03-13T00:57:08.544Z,6.80
2023-03-13T00:59:08.544Z,6.80
2023-03-13T01:01:08.567Z,6.80
2023-03-13T01:03:38.637Z,6.80
2023-03-13T01:05:38.552Z,6.80
2023-03-13T01:07:38.549Z,6.80
2023-03-13T01:09:38.544Z,6.70
2023-03-13T01:11:38.657Z,6.70
2023-03-13T01:13:38.568Z,6.70
2023-03-13T01:15:38.642Z,6.70
2023-03-13T01:17:38.558Z,6.70
2023-03-13T01:19:38.551Z,6.70
2023-03-13T01:21:38.566Z,6.70
2023-03-13T01:23:38.570Z,6.70
2023-03-13T01:25:38.674Z,6.70
2023-03-13T01:27:38.631Z,6.60
2023-03-13T01:29:38.600Z,6.60
2023-03-13T01:31:38.673Z,6.60
2023-03-13T01:33:38.574Z,6.60
2023-03-13T01:35:38.632Z,6.60
2023-03-13T01:37:38.571Z,6.50
2023-03-13T01:39:38.567Z,6.60
2023-03-13T01:41:38.606Z,6.60
2023-03-13T01:43:38.600Z,6.60
2023-03-13T01:45:38.599Z,6.70
2023-03-13T01:47:38.608Z,6.70
2023-03-13T01:49:38.835Z,6.80
2023-03-13T01:51:38.591Z,6.80
2023-03-13T01:53:38.652Z,6.80
2023-03-13T01:55:38.625Z,6.80
2023-03-13T01:57:38.596Z,6.80
2023-03-13T01:59:38.686Z,6.80
2023-03-13T02:01:38.712Z,6.80
2023-03-13T02:03:38.735Z,6.80
2023-03-13T02:05:38.588Z,6.80
2023-03-13T02:07:38.615Z,6.80
2023-03-13T02:09:38.669Z,6.90
2023-03-13T02:11:38.612Z,6.90
2023-03-13T02:13:38.594Z,6.80
2023-03-13T02:15:38.622Z,6.80
2023-03-13T02:17:38.615Z,6.80
2023-03-13T02:19:38.580Z,6.80
2023-03-13T02:21:38.604Z,6.80
2023-03-13T02:23:38.749Z,6.80
2023-03-13T02:25:38.688Z,6.80
2023-03-13T02:27:38.595Z,6.80
2023-03-13T02:29:38.715Z,6.80
2023-03-13T02:31:38.639Z,6.80
2023-03-13T02:33:38.641Z,6.80
2023-03-13T02:35:38.731Z,6.60
2023-03-13T02:37:38.651Z,6.60
2023-03-13T02:39:38.601Z,6.60
2023-03-13T02:41:38.613Z,6.60
2023-03-13T02:43:38.611Z,6.50
2023-03-13T02:45:38.684Z,6.50
2023-03-13T02:47:38.631Z,6.40
2023-03-13T02:49:38.626Z,6.40
2023-03-13T02:51:38.629Z,6.40
2023-03-13T02:53:38.689Z,6.40
2023-03-13T02:55:38.616Z,6.40
2023-03-13T02:58:08.736Z,6.40
2023-03-13T03:00:08.636Z,6.40
2023-03-13T03:02:08.619Z,6.40
2023-03-13T03:04:08.757Z,6.40
2023-03-13T03:06:08.654Z,6.40
2023-03-13T03:08:08.642Z,6.40
2023-03-13T03:10:08.785Z,6.40
2023-03-13T03:12:08.644Z,6.40
2023-03-13T03:14:08.712Z,6.40
2023-03-13T03:16:08.676Z,6.40
2023-03-13T03:18:08.693Z,6.40
2023-03-13T03:20:08.735Z,6.40
2023-03-13T03:22:08.678Z,6.40
2023-03-13T03:23:50.173Z,6.50
2023-03-13T03:25:50.123Z,6.50
2023-03-13T03:27:50.103Z,6.50
2023-03-13T03:29:50.105Z,6.60
2023-03-13T03:31:50.224Z,6.60
2023-03-13T03:33:50.103Z,6.70
2023-03-13T03:35:50.181Z,6.70
2023-03-13T03:37:50.124Z,6.70
2023-03-13T03:39:50.136Z,6.70
2023-03-13T03:42:20.146Z,6.80
2023-03-13T03:44:20.096Z,6.80
2023-03-13T03:46:20.137Z,6.80
2023-03-13T03:48:20.121Z,6.80
2023-03-13T03:50:20.151Z,6.80
2023-03-13T03:52:21.229Z,6.70
2023-03-13T03:54:20.165Z,6.80
2023-03-13T03:56:20.098Z,6.80
2023-03-13T03:58:20.213Z,6.80
2023-03-13T04:00:20.134Z,6.80
2023-03-13T04:02:20.226Z,6.80
2023-03-13T04:04:20.153Z,6.80
2023-03-13T04:06:20.123Z,6.80
2023-03-13T04:08:20.138Z,6.80
2023-03-13T04:10:20.212Z,6.70
2023-03-13T04:12:20.117Z,6.70
2023-03-13T04:14:20.134Z,6.70
2023-03-13T04:16:20.206Z,6.70
2023-03-13T04:18:20.242Z,6.70
2023-03-13T04:20:20.160Z,6.70
2023-03-13T04:22:20.135Z,6.70
2023-03-13T04:24:20.127Z,6.70
2023-03-13T04:26:20.148Z,6.60
2023-03-13T04:28:20.238Z,6.60
2023-03-13T04:30:20.240Z,6.60
2023-03-13T04:32:20.186Z,6.60
2023-03-13T04:34:20.263Z,6.60
2023-03-13T04:36:20.228Z,6.60
2023-03-13T04:38:20.161Z,6.60
2023-03-13T04:40:20.170Z,6.60
2023-03-13T04:42:20.230Z,6.60
2023-03-13T04:44:20.249Z,6.60
2023-03-13T04:46:20.234Z,6.60
2023-03-13T04:48:21.833Z,6.60
2023-03-13T04:50:20.167Z,6.60
2023-03-13T04:52:20.236Z,6.60
2023-03-13T04:54:20.149Z,6.60
2023-03-13T04:56:21.523Z,6.60
2023-03-13T04:58:20.153Z,6.60
2023-03-13T05:00:20.168Z,6.60
2023-03-13T05:02:20.148Z,6.60
2023-03-13T05:04:20.184Z,6.60
2023-03-13T05:06:20.160Z,6.80
2023-03-13T05:08:20.230Z,6.90
2023-03-13T05:10:20.228Z,6.90
2023-03-13T05:12:20.168Z,6.90
2023-03-13T05:14:20.183Z,6.90
2023-03-13T05:16:20.303Z,6.80
2023-03-13T05:18:20.178Z,6.80
2023-03-13T05:20:20.171Z,6.80
2023-03-13T05:22:20.176Z,6.90
2023-03-13T05:24:20.173Z,6.80
2023-03-13T05:26:20.253Z,6.80
2023-03-13T05:28:20.289Z,6.80
2023-03-13T05:30:20.352Z,6.80
2023-03-13T05:32:20.375Z,6.90
2023-03-13T05:34:20.189Z,7.00
2023-03-13T05:36:20.174Z,7.00
2023-03-13T05:38:50.228Z,7.00
2023-03-13T05:40:50.233Z,6.90
2023-03-13T05:42:50.270Z,6.90
2023-03-13T05:44:50.299Z,7.00
2023-03-13T05:46:50.336Z,7.00
2023-03-13T05:48:50.226Z,7.00
2023-03-13T05:50:50.447Z,7.00
2023-03-13T05:52:50.173Z,7.00
2023-03-13T05:54:50.266Z,7.00
2023-03-13T05:56:50.349Z,7.00
2023-03-13T05:58:50.283Z,7.10
2023-03-13T06:00:50.293Z,7.20
2023-03-13T06:02:50.302Z,7.20
2023-03-13T06:04:50.280Z,7.20
2023-03-13T06:06:50.234Z,7.20
2023-03-13T06:08:50.272Z,7.20
2023-03-13T06:10:50.267Z,7.20
2023-03-13T06:12:50.264Z,7.20
2023-03-13T06:14:50.316Z,7.20
2023-03-13T06:16:50.296Z,7.20
2023-03-13T06:18:50.435Z,7.20
2023-03-13T06:20:50.226Z,7.20
2023-03-13T06:22:50.204Z,7.20
2023-03-13T06:24:50.400Z,7.60
2023-03-13T06:26:50.216Z,7.80
2023-03-13T06:28:50.208Z,7.80
2023-03-13T06:30:50.317Z,7.80
2023-03-13T06:32:50.497Z,7.80
2023-03-13T06:34:50.202Z,8.20
2023-03-13T06:36:50.248Z,8.40
2023-03-13T06:38:50.207Z,8.40
2023-03-13T06:40:50.212Z,8.40
2023-03-13T06:42:50.221Z,8.40
2023-03-13T06:44:50.202Z,8.40
2023-03-13T06:46:50.279Z,8.50
2023-03-13T06:48:50.223Z,8.50
2023-03-13T06:50:50.255Z,8.50
2023-03-13T06:52:50.247Z,8.50
2023-03-13T06:54:50.270Z,8.50
2023-03-13T06:56:50.210Z,8.50
2023-03-13T06:58:50.220Z,8.50
2023-03-13T07:00:50.305Z,9.00
2023-03-13T07:02:50.352Z,9.00
2023-03-13T07:04:50.223Z,9.70
2023-03-13T07:06:50.388Z,9.90
2023-03-13T07:08:50.252Z,9.90
2023-03-13T07:10:50.215Z,9.90
2023-03-13T07:12:50.242Z,9.90
2023-03-13T07:14:50.254Z,10.80
2023-03-13T07:16:50.417Z,10.80
2023-03-13T07:18:50.256Z,10.80
2023-03-13T07:20:50.262Z,10.80
2023-03-13T07:22:50.259Z,10.80
2023-03-13T07:24:50.370Z,11.00
2023-03-13T07:27:04.195Z,11.00
2023-03-13T07:28:50.355Z,11.00
2023-03-13T07:30:50.276Z,11.00
2023-03-13T07:32:50.344Z,11.20
2023-03-13T07:35:20.249Z,11.00
2023-03-13T07:37:20.283Z,11.00
2023-03-13T07:39:20.257Z,11.20
2023-03-13T07:41:20.295Z,11.10
2023-03-13T07:43:20.261Z,11.10
2023-03-13T07:45:20.257Z,11.10
2023-03-13T07:47:20.352Z,11.10
2023-03-13T07:49:20.278Z,11.20
2023-03-13T07:51:25.210Z,11.20
2023-03-13T07:53:20.303Z,11.20
2023-03-13T07:55:20.320Z,11.20
2023-03-13T07:57:20.253Z,11.20
2023-03-13T07:59:20.272Z,11.40
2023-03-13T08:01:20.253Z,11.40
2023-03-13T08:03:20.315Z,11.40
2023-03-13T08:05:20.256Z,11.40
2023-03-13T08:07:20.305Z,11.40
2023-03-13T08:09:20.282Z,11.50
2023-03-13T08:11:20.333Z,11.50
2023-03-13T08:13:20.312Z,11.50
2023-03-13T08:15:20.274Z,11.50
2023-03-13T08:17:20.358Z,11.60
2023-03-13T08:19:20.315Z,11.50
2023-03-13T08:21:20.306Z,11.50
2023-03-13T08:23:20.263Z,11.50
2023-03-13T08:25:20.340Z,11.40
2023-03-13T08:27:20.286Z,11.40
2023-03-13T08:29:20.299Z,11.40
2023-03-13T08:31:20.533Z,11.40
2023-03-13T08:33:20.266Z,11.40
2023-03-13T08:35:20.386Z,11.40
2023-03-13T08:37:20.307Z,11.40
2023-03-13T08:39:20.305Z,11.40
2023-03-13T08:41:20.288Z,11.40
2023-03-13T08:43:20.357Z,11.40
2023-03-13T08:45:20.317Z,11.40
2023-03-13T08:47:20.279Z,11.50
2023-03-13T08:49:20.327Z,11.50
2023-03-13T08:51:20.316Z,11.50
2023-03-13T08:53:20.301Z,11.60
2023-03-13T08:55:20.307Z,11.60
2023-03-13T08:57:20.330Z,11.60
2023-03-13T08:59:20.299Z,11.60
2023-03-13T09:01:20.360Z,11.60
2023-03-13T09:03:20.354Z,11.60
2023-03-13T09:05:20.339Z,11.60
2023-03-13T09:07:20.318Z,11.60
2023-03-13T09:09:20.344Z,12.40
2023-03-13T09:11:20.333Z,12.40
2023-03-13T09:13:20.331Z,12.60
2023-03-13T09:15:20.332Z,12.60
2023-03-13T09:17:20.335Z,13.10
2023-03-13T09:19:20.309Z,13.10
2023-03-13T09:21:20.344Z,13.40
2023-03-13T09:23:20.341Z,13.60
2023-03-13T09:25:20.342Z,13.40
2023-03-13T09:27:20.353Z,13.40
2023-03-13T09:29:20.375Z,13.40
2023-03-13T09:31:50.343Z,13.20
2023-03-13T09:33:50.338Z,13.20
2023-03-13T09:35:50.371Z,13.20
2023-03-13T09:37:50.383Z,13.20
2023-03-13T09:39:50.329Z,13.20
2023-03-13T09:41:50.394Z,13.20
2023-03-13T09:43:50.328Z,13.20
2023-03-13T09:45:50.363Z,13.30
2023-03-13T09:47:50.363Z,13.20
2023-03-13T09:49:50.372Z,13.20
2023-03-13T09:51:50.342Z,13.20
2023-03-13T09:53:50.389Z,13.20
2023-03-13T09:55:50.380Z,13.20
2023-03-13T09:57:50.514Z,13.20
2023-03-13T09:59:50.362Z,13.20
2023-03-13T10:01:50.460Z,13.20
2023-03-13T10:03:50.342Z,13.20
2023-03-13T10:05:50.337Z,13.50
2023-03-13T10:07:50.384Z,13.60
2023-03-13T10:09:50.357Z,13.70
2023-03-13T10:11:50.409Z,13.70
2023-03-13T10:13:50.427Z,13.70
2023-03-13T10:15:50.475Z,13.70
2023-03-13T10:19:50.427Z,13.70
2023-03-13T10:21:50.513Z,13.70
2023-03-13T10:23:50.404Z,13.80
2023-03-13T10:25:50.422Z,13.70
2023-03-13T10:28:01.202Z,13.70
2023-03-13T10:30:01.237Z,13.70
2023-03-13T10:32:01.198Z,13.50
2023-03-13T10:34:01.157Z,13.30
2023-03-13T10:36:01.203Z,13.30
2023-03-13T10:38:01.194Z,13.20
2023-03-13T10:40:01.164Z,13.20
2023-03-13T10:42:01.172Z,13.20
2023-03-13T10:44:01.172Z,13.20
2023-03-13T10:46:01.176Z,13.20
2023-03-13T10:48:01.165Z,13.20
2023-03-13T10:50:01.174Z,14.50
2023-03-13T10:52:01.178Z,14.60
2023-03-13T10:54:01.175Z,14.60
2023-03-13T10:56:01.202Z,15.00
2023-03-13T10:58:01.176Z,15.00
2023-03-13T11:00:03.176Z,16.00
2023-03-13T11:02:01.193Z,16.00
2023-03-13T11:04:01.354Z,16.50
2023-03-13T11:06:01.217Z,16.50
2023-03-13T11:08:01.206Z,16.50
2023-03-13T11:10:01.185Z,16.80
2023-03-13T11:12:01.296Z,17.00
2023-03-13T11:14:01.174Z,17.10
2023-03-13T11:16:01.233Z,17.10
2023-03-13T11:18:01.194Z,17.10
2023-03-13T11:20:01.207Z,17.10
2023-03-13T11:22:01.232Z,17.10
2023-03-13T11:24:01.191Z,16.70
2023-03-13T11:26:01.189Z,16.70
2023-03-13T11:28:01.234Z,16.10
2023-03-13T11:30:01.250Z,16.20
2023-03-13T11:32:01.262Z,16.20
2023-03-13T11:34:01.215Z,16.20
2023-03-13T11:36:01.285Z,16.20
2023-03-13T11:38:01.207Z,16.20
2023-03-13T11:40:01.263Z,16.50
2023-03-13T11:42:01.314Z,16.50
2023-03-13T11:44:01.204Z,16.50
2023-03-13T11:46:01.342Z,16.50
2023-03-13T11:48:01.216Z,16.50
2023-03-13T11:50:01.237Z,16.10
2023-03-13T11:52:01.223Z,16.10
2023-03-13T11:54:02.131Z,16.10
2023-03-13T11:56:01.338Z,16.20
2023-03-13T11:58:01.237Z,16.20
2023-03-13T12:00:01.239Z,16.30
2023-03-13T12:02:01.345Z,16.30
2023-03-13T12:04:01.257Z,16.30
2023-03-13T12:06:01.244Z,16.20
2023-03-13T12:08:01.236Z,16.20
2023-03-13T12:10:01.221Z,16.10
2023-03-13T12:12:01.255Z,16.10
2023-03-13T12:14:31.214Z,16.10
2023-03-13T12:16:31.270Z,16.10
2023-03-13T12:18:31.255Z,16.10
2023-03-13T12:20:31.233Z,16.10
2023-03-13T12:22:31.292Z,16.10
2023-03-13T12:24:31.241Z,17.30
2023-03-13T12:26:31.316Z,17.30
2023-03-13T12:28:31.300Z,16.90
2023-03-13T12:30:31.249Z,16.90
2023-03-13T12:32:31.311Z,16.90
2023-03-13T12:34:31.262Z,16.90
2023-03-13T12:36:31.303Z,17.10
2023-03-13T12:38:31.266Z,17.10
2023-03-13T12:40:31.307Z,17.10
2023-03-13T12:42:31.245Z,17.10
2023-03-13T12:44:31.263Z,18.70
2023-03-13T12:46:31.392Z,18.70
2023-03-13T12:48:31.294Z,18.70
2023-03-13T12:50:31.277Z,18.70
2023-03-13T12:52:31.285Z,19.70
2023-03-13T12:54:31.320Z,19.70
2023-03-13T12:56:31.585Z,19.80
2023-03-13T12:58:31.315Z,19.80
2023-03-13T13:00:31.346Z,19.80
2023-03-13T13:02:31.272Z,19.80
2023-03-13T13:04:31.374Z,19.80
2023-03-13T13:06:31.292Z,19.80
2023-03-13T13:08:31.299Z,19.90
2023-03-13T13:10:31.293Z,19.90
2023-03-13T13:12:31.322Z,19.90
2023-03-13T13:14:31.392Z,19.90
2023-03-13T13:16:31.377Z,19.90
2023-03-13T13:18:31.359Z,19.90
2023-03-13T13:20:31.326Z,19.90
2023-03-13T13:22:31.501Z,20.10
2023-03-13T13:24:31.300Z,20.10
2023-03-13T13:26:31.327Z,20.10
2023-03-13T13:28:31.346Z,20.10
2023-03-13T13:30:31.350Z,20.10
2023-03-13T13:32:31.369Z,20.70
2023-03-13T13:34:31.411Z,20.80
2023-03-13T13:36:31.314Z,20.80
2023-03-13T13:38:31.296Z,20.80
2023-03-13T13:40:31.319Z,20.80
2023-03-13T13:42:31.316Z,20.90
2023-03-13T13:44:31.353Z,20.90
2023-03-13T13:46:31.454Z,21.00
2023-03-13T13:48:31.342Z,21.00
2023-03-13T13:50:31.445Z,21.00
2023-03-13T13:52:31.345Z,21.00
2023-03-13T13:54:31.335Z,21.20
2023-03-13T13:56:31.403Z,21.20
2023-03-13T13:58:31.355Z,21.30
2023-03-13T14:00:31.337Z,21.30
2023-03-13T14:02:31.370Z,20.40
2023-03-13T14:04:31.341Z,20.40
2023-03-13T14:06:31.373Z,20.40
2023-03-13T14:08:31.380Z,20.00
2023-03-13T14:10:31.338Z,20.10
2023-03-13T14:12:31.374Z,20.10
2023-03-13T14:14:31.345Z,20.10
2023-03-13T14:16:31.434Z,20.10
2023-03-13T14:19:01.369Z,19.50
2023-03-13T14:21:01.354Z,19.50
2023-03-13T14:23:01.724Z,19.50
2023-03-13T14:25:01.338Z,19.50
2023-03-13T14:27:01.364Z,19.50
2023-03-13T14:29:01.351Z,19.50
2023-03-13T14:31:01.393Z,18.70
2023-03-13T14:33:01.405Z,18.60
2023-03-13T14:35:01.370Z,18.60
2023-03-13T14:37:17.247Z,18.60
2023-03-13T14:39:01.394Z,18.60
2023-03-13T14:41:01.437Z,18.60
2023-03-13T14:43:01.518Z,18.60
2023-03-13T14:45:01.360Z,18.60
2023-03-13T14:47:01.427Z,18.30
2023-03-13T14:49:01.497Z,18.30
2023-03-13T14:51:14.220Z,18.30
2023-03-13T14:53:01.385Z,18.30
2023-03-13T14:55:01.511Z,18.30
2023-03-13T14:57:01.439Z,18.30
2023-03-13T14:59:01.551Z,18.20
2023-03-13T15:01:01.480Z,18.20
2023-03-13T15:03:01.441Z,18.50
2023-03-13T15:05:01.509Z,18.50
2023-03-13T15:07:01.492Z,18.50
2023-03-13T15:09:02.471Z,18.40
2023-03-13T15:11:01.523Z,18.40
2023-03-13T15:13:01.417Z,18.60
2023-03-13T15:15:01.419Z,18.60
2023-03-13T15:17:01.484Z,18.60
2023-03-13T15:19:01.392Z,18.70
2023-03-13T15:21:01.416Z,18.70
2023-03-13T15:23:01.423Z,18.80
2023-03-13T15:25:07.446Z,18.80
2023-03-13T15:27:01.400Z,18.80
2023-03-13T15:29:01.432Z,18.80
2023-03-13T15:31:01.395Z,18.40
2023-03-13T15:33:01.488Z,18.20
2023-03-13T15:35:01.455Z,18.20
2023-03-13T15:37:01.497Z,18.20
2023-03-13T15:39:01.527Z,18.30
2023-03-13T15:41:01.505Z,18.40
2023-03-13T15:43:01.438Z,18.40
2023-03-13T15:45:01.567Z,18.40
2023-03-13T15:47:01.469Z,18.30
2023-03-13T15:49:01.501Z,18.20
2023-03-13T15:51:01.414Z,18.20
2023-03-13T15:53:01.514Z,18.20
2023-03-13T15:55:01.564Z,18.20
2023-03-13T15:57:01.545Z,18.30
2023-03-13T15:59:01.459Z,18.20
2023-03-13T16:01:01.584Z,18.20
2023-03-13T16:03:01.896Z,18.20
2023-03-13T16:05:01.427Z,18.00
2023-03-13T16:07:01.492Z,18.00
2023-03-13T16:09:01.721Z,17.80
2023-03-13T16:11:01.519Z,17.80
2023-03-13T16:13:01.501Z,17.80
2023-03-13T16:15:01.457Z,17.60
2023-03-13T16:17:01.665Z,17.50
2023-03-13T16:19:01.484Z,17.40
2023-03-13T16:21:01.497Z,17.40
2023-03-13T16:23:31.459Z,17.40
2023-03-13T16:25:31.479Z,17.20
2023-03-13T16:27:31.560Z,17.20
2023-03-13T16:29:31.481Z,17.20
2023-03-13T16:31:31.610Z,17.20
2023-03-13T16:33:31.474Z,16.80
2023-03-13T16:35:31.542Z,16.80
2023-03-13T16:37:31.509Z,16.70
2023-03-13T16:39:31.547Z,16.70
2023-03-13T16:41:31.553Z,16.70
2023-03-13T16:43:31.551Z,16.70
2023-03-13T16:45:31.490Z,16.50
2023-03-13T16:47:31.619Z,16.40
2023-03-13T16:49:31.490Z,16.40
2023-03-13T16:51:31.558Z,16.40
2023-03-13T16:53:31.611Z,16.20
2023-03-13T16:55:31.623Z,16.20
2023-03-13T16:57:31.656Z,16.20
2023-03-13T16:59:31.559Z,16.20
2023-03-13T17:01:31.502Z,16.10
2023-03-13T17:03:31.498Z,16.10
2023-03-13T17:05:31.550Z,16.00
2023-03-13T17:07:31.647Z,15.90
2023-03-13T17:09:31.600Z,15.90
2023-03-13T17:11:31.643Z,15.90
2023-03-13T17:13:31.649Z,15.80
2023-03-13T17:15:31.659Z,15.70
2023-03-13T17:17:31.506Z,15.60
2023-03-13T17:19:31.487Z,15.60
2023-03-13T17:23:31.530Z,15.60
2023-03-13T17:27:39.978Z,15.30
2023-03-13T17:29:40.005Z,15.30
2023-03-13T17:31:39.989Z,15.30
2023-03-13T17:33:39.927Z,15.20
2023-03-13T17:35:39.972Z,15.20
2023-03-13T17:37:39.938Z,15.20
2023-03-13T17:39:39.960Z,15.00
2023-03-13T17:41:40.008Z,15.00
2023-03-13T17:43:39.994Z,15.00
2023-03-13T17:45:40.024Z,15.00
2023-03-13T17:47:39.915Z,15.00
2023-03-13T17:49:39.915Z,15.00
2023-03-13T17:51:39.924Z,15.00
2023-03-13T17:53:40.002Z,15.00
2023-03-13T17:55:39.969Z,15.00
2023-03-13T17:57:40.000Z,15.00
2023-03-13T17:59:40.004Z,15.00
2023-03-13T18:01:40.000Z,15.00
2023-03-13T18:03:39.952Z,15.00
2023-03-13T18:05:41.046Z,15.00
2023-03-13T18:07:39.975Z,14.90
2023-03-13T18:09:40.031Z,14.90
2023-03-13T18:11:40.044Z,14.90
2023-03-13T18:13:40.013Z,14.90
2023-03-13T18:15:39.966Z,15.00
2023-03-13T18:17:39.912Z,14.90
2023-03-13T18:19:39.972Z,14.90
2023-03-13T18:21:39.961Z,14.90
2023-03-13T18:23:40.047Z,14.90
2023-03-13T18:25:39.910Z,14.90
2023-03-13T18:27:39.998Z,14.90
2023-03-13T18:29:39.929Z,14.80
2023-03-13T18:31:40.192Z,14.90
2023-03-13T18:33:41.726Z,14.90
2023-03-13T18:35:39.971Z,15.00
2023-03-13T18:37:39.960Z,15.00
2023-03-13T18:39:40.035Z,15.00
2023-03-13T18:41:40.012Z,15.00
2023-03-13T18:43:40.024Z,15.00
2023-03-13T18:45:40.050Z,15.00
2023-03-13T18:47:39.976Z,15.00
2023-03-13T18:49:40.030Z,15.00
2023-03-13T18:51:39.952Z,15.00
2023-03-13T18:54:10.022Z,15.00
2023-03-13T18:56:10.019Z,15.00
2023-03-13T18:58:10.060Z,15.00
2023-03-13T19:00:10.040Z,15.00
2023-03-13T19:02:10.086Z,15.00
2023-03-13T19:04:09.997Z,14.80
2023-03-13T19:06:09.979Z,14.80
2023-03-13T19:08:10.000Z,14.80
2023-03-13T19:10:10.010Z,14.80
2023-03-13T19:12:10.002Z,14.80
2023-03-13T19:14:10.052Z,15.00
2023-03-13T19:16:09.988Z,15.00
2023-03-13T19:18:10.073Z,15.00
2023-03-13T19:20:10.000Z,15.00
2023-03-13T19:22:10.012Z,15.00
2023-03-13T19:24:10.021Z,15.00
2023-03-13T19:26:10.273Z,15.00
2023-03-13T19:28:10.114Z,15.00
2023-03-13T19:30:10.063Z,15.00
2023-03-13T19:32:10.134Z,15.00
2023-03-13T19:34:10.090Z,15.00
2023-03-13T19:36:10.001Z,12.60
2023-03-13T19:38:10.048Z,11.40
2023-03-13T19:40:10.080Z,10.80
2023-03-13T19:42:10.008Z,10.60
2023-03-13T19:44:10.048Z,10.60
2023-03-13T19:46:10.009Z,10.50
2023-03-13T19:48:10.077Z,10.50
2023-03-13T19:50:09.986Z,10.50
2023-03-13T19:52:10.042Z,10.20
2023-03-13T19:54:10.027Z,10.20
2023-03-13T19:56:10.061Z,10.20
2023-03-13T19:58:10.040Z,10.20
2023-03-13T20:00:10.051Z,10.20
2023-03-13T20:02:10.109Z,10.20
2023-03-13T20:04:10.099Z,10.10
2023-03-13T20:06:10.038Z,10.10
2023-03-13T20:08:10.021Z,10.00
2023-03-13T20:10:10.048Z,9.90
2023-03-13T20:12:10.052Z,9.90
2023-03-13T20:14:10.066Z,9.90
2023-03-13T20:16:10.175Z,9.80
2023-03-13T20:18:10.038Z,9.80
2023-03-13T20:20:10.008Z,9.80
2023-03-13T20:22:10.013Z,9.80
2023-03-13T20:24:10.064Z,9.80
2023-03-13T20:26:09.985Z,9.80
2023-03-13T20:28:10.086Z,9.80
2023-03-13T20:30:10.089Z,9.80
2023-03-13T20:32:10.012Z,9.90
2023-03-13T20:34:10.095Z,9.80
2023-03-13T20:36:10.044Z,9.90
2023-03-13T20:38:10.029Z,9.90
2023-03-13T20:40:09.993Z,9.90
2023-03-13T20:42:10.097Z,9.90
2023-03-13T20:44:10.088Z,10.00
2023-03-13T20:46:10.157Z,10.00
2023-03-13T20:48:10.029Z,9.90
2023-03-13T20:50:10.134Z,9.90
2023-03-13T20:52:40.094Z,10.00
2023-03-13T20:54:40.101Z,10.00
2023-03-13T20:56:40.093Z,10.00
2023-03-13T20:58:40.108Z,10.00
2023-03-13T21:00:40.102Z,10.10
2023-03-13T21:02:40.139Z,10.10
2023-03-13T21:04:40.104Z,10.10
2023-03-13T21:06:40.068Z,10.20
2023-03-13T21:08:40.088Z,10.20
2023-03-13T21:10:40.085Z,10.20
2023-03-13T21:12:40.076Z,10.20
2023-03-13T21:14:40.133Z,10.20
2023-03-13T21:16:40.180Z,10.20
2023-03-13T21:18:40.041Z,10.20
2023-03-13T21:20:40.022Z,10.20
2023-03-13T21:22:40.072Z,10.20
2023-03-13T21:24:40.123Z,8.60
2023-03-13T21:26:40.016Z,8.60
2023-03-13T21:28:40.144Z,8.40
2023-03-13T21:30:40.116Z,8.40
2023-03-13T21:32:40.138Z,8.40
2023-03-13T21:34:40.054Z,7.80
2023-03-13T21:36:40.053Z,7.70
2023-03-13T21:38:40.309Z,7.70
2023-03-13T21:40:40.103Z,7.70
2023-03-13T21:42:40.116Z,7.60
2023-03-13T21:44:40.151Z,7.60
2023-03-13T21:46:40.185Z,7.50
2023-03-13T21:48:40.160Z,7.50
2023-03-13T21:50:40.213Z,7.50
2023-03-13T21:52:41.045Z,7.50
2023-03-13T21:54:40.093Z,7.50
2023-03-13T21:56:40.279Z,7.60
2023-03-13T21:58:40.118Z,7.60
2023-03-13T22:00:40.167Z,7.60
2023-03-13T22:02:41.047Z,7.60
2023-03-13T22:04:40.126Z,7.60
2023-03-13T22:06:40.091Z,7.60
2023-03-13T22:08:40.103Z,7.60
2023-03-13T22:10:40.164Z,7.60
2023-03-13T22:12:40.136Z,7.60
2023-03-13T22:14:40.145Z,7.60
2023-03-13T22:16:40.157Z,7.50
2023-03-13T22:18:40.182Z,7.50
2023-03-13T22:20:40.095Z,7.60
2023-03-13T22:22:40.084Z,7.60
2023-03-13T22:24:40.275Z,7.60
2023-03-13T22:26:40.088Z,7.60
2023-03-13T22:28:40.147Z,7.60
2023-03-13T22:30:40.167Z,7.60
2023-03-13T22:32:40.260Z,7.60
2023-03-13T22:34:40.215Z,7.60
2023-03-13T22:36:40.086Z,7.60
2023-03-13T22:38:40.083Z,7.60
2023-03-13T22:40:40.138Z,7.60
2023-03-13T22:42:40.187Z,7.50
2023-03-13T22:44:40.202Z,7.50
2023-03-13T22:47:10.170Z,7.50
2023-03-13T22:49:10.210Z,7.50
2023-03-13T22:51:10.117Z,7.50
2023-03-13T22:53:10.081Z,7.50
2023-03-13T22:55:10.169Z,7.50
2023-03-13T22:57:10.165Z,7.50
2023-03-13T22:59:10.174Z,7.50
2023-03-13T23:01:10.219Z,7.50
2023-03-13T23:03:10.172Z,7.40
2023-03-13T23:05:10.136Z,7.40
2023-03-13T23:07:10.122Z,7.40
2023-03-13T23:09:10.140Z,7.50
2023-03-13T23:11:10.185Z,7.50
2023-03-13T23:13:10.147Z,7.50
2023-03-13T23:15:10.186Z,7.50
2023-03-13T23:17:10.088Z,7.50
2023-03-13T23:19:10.210Z,7.50
2023-03-13T23:21:10.161Z,7.60
2023-03-13T23:23:10.132Z,7.60
2023-03-13T23:25:10.167Z,7.60
2023-03-13T23:27:10.168Z,7.60
2023-03-13T23:29:10.210Z,7.60
2023-03-13T23:31:10.223Z,7.60
2023-03-13T23:33:10.224Z,7.60
2023-03-13T23:35:10.216Z,7.70
2023-03-13T23:37:10.142Z,7.70
2023-03-13T23:39:10.123Z,7.70
2023-03-13T23:41:10.089Z,7.80
2023-03-13T23:43:10.205Z,7.80
2023-03-13T23:45:10.200Z,7.80
2023-03-13T23:47:10.222Z,7.80
2023-03-13T23:49:10.090Z,7.80
2023-03-13T23:51:10.324Z,7.80
2023-03-13T23:53:10.160Z,7.80
2023-03-13T23:55:10.145Z,7.80
2023-03-13T23:57:10.110Z,7.80
2023-03-13T23:59:10.215Z,7.80
